Time;durP1;ratioP1;P1;durP2;ratioP2;P2;SDS_P1;SDS_P2;PMS_P1;PMS_P2;Temp;Humidity;BMP_temperature;BMP_pressure;BME280_temperature;BME280_humidity;BME280_pressure;Samples;Min_cycle;Max_cycle;Signal;HPM_P1;HPM_P2
2022/06/06 00:02:57;;;;;;;7.15;4.32;;;;;;;13.02;100.00;99755.53;5012912;28;20058;-58
2022/06/06 00:05:43;;;;;;;4.05;3.25;;;;;;;12.97;100.00;99755.72;5011992;28;20073;-57
2022/06/06 00:08:27;;;;;;;6.75;3.60;;;;;;;12.99;100.00;99764.38;5010749;28;20042;-58
2022/06/06 00:11:12;;;;;;;4.85;4.05;;;;;;;12.92;100.00;99762.03;5012230;28;20496;-57
2022/06/06 00:13:56;;;;;;;6.32;4.10;;;;;;;12.73;100.00;99740.78;5009148;28;20532;-57
2022/06/06 00:16:41;;;;;;;6.88;4.57;;;;;;;12.59;100.00;99741.28;5011923;28;20108;-57
2022/06/06 00:19:26;;;;;;;4.10;3.65;;;;;;;12.65;100.00;99734.97;5007806;28;20073;-57
2022/06/06 00:22:10;;;;;;;4.85;3.65;;;;;;;12.66;100.00;99752.44;5016825;28;20057;-57
2022/06/06 00:24:54;;;;;;;4.30;3.15;;;;;;;12.55;100.00;99753.66;5009609;28;20050;-57
2022/06/06 00:27:39;;;;;;;4.30;3.10;;;;;;;12.52;100.00;99745.88;5009942;28;20061;-57
2022/06/06 00:30:24;;;;;;;5.90;4.05;;;;;;;12.38;100.00;99746.38;5014331;28;20042;-56
2022/06/06 00:36:21;;;;;;;3.78;3.25;;;;;;;12.39;100.00;99755.09;5002204;28;20091;-58
2022/06/06 00:39:08;;;;;;;4.00;3.28;;;;;;;12.36;100.00;99760.44;5011809;28;20488;-57
2022/06/06 00:41:55;;;;;;;3.78;3.35;;;;;;;12.29;100.00;99762.41;5013060;28;20136;-57
2022/06/06 00:44:40;;;;;;;5.53;4.40;;;;;;;12.20;100.00;99760.09;5013997;28;20058;-56
2022/06/06 00:47:28;;;;;;;4.30;3.90;;;;;;;12.16;100.00;99763.72;5014858;28;20030;-58
2022/06/06 00:50:21;;;;;;;4.15;3.72;;;;;;;12.04;100.00;99762.34;5014306;28;20052;-58
2022/06/06 00:53:08;;;;;;;4.40;3.70;;;;;;;11.98;100.00;99749.41;5010964;28;20409;-57
2022/06/06 00:55:59;;;;;;;4.95;4.45;;;;;;;12.00;100.00;99744.13;5011527;28;20046;-57
2022/06/06 00:58:43;;;;;;;4.38;3.45;;;;;;;11.97;100.00;99747.69;5008055;28;20046;-56
2022/06/06 01:01:31;;;;;;;5.20;4.05;;;;;;;12.02;100.00;99742.28;5007223;28;20053;-58
2022/06/06 01:04:16;;;;;;;4.55;3.47;;;;;;;11.99;100.00;99742.38;5006696;28;20041;-57
2022/06/06 01:07:02;;;;;;;4.15;3.60;;;;;;;11.91;100.00;99729.53;5007976;28;20053;-56
2022/06/06 01:09:47;;;;;;;4.00;3.60;;;;;;;11.89;100.00;99732.22;5005633;28;20172;-58
2022/06/06 01:12:32;;;;;;;6.90;4.78;;;;;;;11.91;100.00;99724.28;5006318;28;20042;-57
2022/06/06 01:15:21;;;;;;;5.78;4.22;;;;;;;11.88;100.00;99725.22;5007667;28;20073;-58
2022/06/06 01:18:14;;;;;;;5.80;5.03;;;;;;;11.80;100.00;99714.09;5007431;28;20273;-56
2022/06/06 01:21:17;;;;;;;8.32;5.78;;;;;;;11.73;100.00;99719.56;5007191;28;20608;-55
2022/06/06 01:24:28;;;;;;;5.95;4.82;;;;;;;11.79;100.00;99709.72;5007003;28;20053;-57
2022/06/06 01:27:23;;;;;;;5.30;4.60;;;;;;;11.71;100.00;99706.50;5005933;28;20072;-56
2022/06/06 01:30:15;;;;;;;5.70;4.10;;;;;;;11.72;100.00;99699.47;5007639;28;20042;-56
2022/06/06 01:33:02;;;;;;;5.70;4.47;;;;;;;11.66;100.00;99688.25;5009277;28;20076;-58
2022/06/06 01:35:50;;;;;;;5.28;4.35;;;;;;;11.74;100.00;99697.69;5007094;28;20057;-57
2022/06/06 01:38:37;;;;;;;5.95;4.13;;;;;;;11.80;100.00;99692.25;5007893;28;20042;-58
2022/06/06 01:41:31;;;;;;;4.80;3.92;;;;;;;11.77;100.00;99690.56;5014125;28;20045;-57
2022/06/06 01:44:27;;;;;;;6.72;4.85;;;;;;;11.85;100.00;99691.19;5011870;28;20105;-56
2022/06/06 01:47:18;;;;;;;6.88;4.78;;;;;;;11.77;100.00;99687.09;5007239;28;20042;-56
2022/06/06 01:50:05;;;;;;;7.88;4.97;;;;;;;11.85;100.00;99677.22;5010837;28;20595;-57
2022/06/06 01:52:53;;;;;;;4.97;4.32;;;;;;;11.80;100.00;99668.63;5010931;28;20058;-57
2022/06/06 01:55:42;;;;;;;4.43;4.03;;;;;;;11.83;100.00;99672.00;5010151;28;20077;-58
2022/06/06 01:58:30;;;;;;;5.82;4.90;;;;;;;11.87;100.00;99675.41;5010908;28;20052;-57
2022/06/06 02:01:15;;;;;;;4.65;4.15;;;;;;;11.79;100.00;99646.75;5006279;28;20068;-57
2022/06/06 02:03:59;;;;;;;5.47;4.18;;;;;;;11.79;100.00;99649.38;5006866;28;20049;-59
2022/06/06 02:06:43;;;;;;;6.25;4.55;;;;;;;11.86;100.00;99650.94;5009480;28;20045;-55
2022/06/06 02:09:31;;;;;;;7.22;4.45;;;;;;;11.85;100.00;99653.59;5009982;28;20045;-57
2022/06/06 02:12:17;;;;;;;8.40;5.43;;;;;;;11.80;100.00;99645.00;5005892;28;20061;-56
2022/06/06 02:15:02;;;;;;;7.38;4.78;;;;;;;11.69;100.00;99634.84;5006718;28;20612;-56
2022/06/06 02:17:47;;;;;;;6.43;4.47;;;;;;;11.81;100.00;99647.56;5006608;28;20111;-58
2022/06/06 02:20:33;;;;;;;4.97;4.57;;;;;;;11.83;100.00;99651.00;5005387;28;20624;-57
2022/06/06 02:23:17;;;;;;;4.90;4.35;;;;;;;11.85;100.00;99664.09;5008932;28;20054;-58
2022/06/06 02:26:02;;;;;;;5.10;4.20;;;;;;;11.95;100.00;99662.88;5012397;28;20061;-56
2022/06/06 02:28:47;;;;;;;8.00;4.47;;;;;;;11.96;100.00;99664.63;5009219;28;20049;-57
2022/06/06 02:31:37;;;;;;;5.22;4.38;;;;;;;11.81;100.00;99651.97;5010242;28;20105;-56
2022/06/06 02:34:21;;;;;;;6.05;5.05;;;;;;;11.78;100.00;99652.06;5011595;28;20061;-57
2022/06/06 02:37:06;;;;;;;6.90;4.43;;;;;;;11.82;100.00;99666.78;5010824;28;20095;-56
2022/06/06 02:39:50;;;;;;;5.72;4.88;;;;;;;11.83;100.00;99663.25;5013246;28;20050;-57
2022/06/06 02:42:35;;;;;;;4.60;4.20;;;;;;;11.88;100.00;99666.63;5012211;28;20041;-57
2022/06/06 02:45:21;;;;;;;6.40;4.78;;;;;;;11.90;100.00;99672.69;5011569;28;20065;-57
2022/06/06 02:48:08;;;;;;;6.78;4.88;;;;;;;11.96;100.00;99685.63;5014220;28;20065;-57
2022/06/06 02:50:52;;;;;;;6.10;4.97;;;;;;;11.96;100.00;99685.63;5013998;28;20053;-57
2022/06/06 02:53:37;;;;;;;5.40;4.75;;;;;;;11.98;100.00;99685.56;5014491;28;20045;-57
2022/06/06 02:56:21;;;;;;;5.72;4.82;;;;;;;11.93;100.00;99683.94;5012242;28;20100;-56
2022/06/06 02:59:07;;;;;;;4.90;4.40;;;;;;;11.96;100.00;99683.00;5011610;28;20037;-56
2022/06/06 03:01:52;;;;;;;5.18;4.20;;;;;;;11.96;100.00;99682.13;5008857;28;20054;-58
2022/06/06 03:04:38;;;;;;;4.85;4.35;;;;;;;12.03;100.00;99678.41;5003983;28;20042;-56
2022/06/06 03:07:40;;;;;;;9.27;5.30;;;;;;;12.01;100.00;99683.69;5001528;28;20071;-56
2022/06/06 03:10:47;;;;;;;7.03;4.95;;;;;;;12.01;100.00;99685.47;5003499;28;20049;-57
2022/06/06 03:14:02;;;;;;;6.40;5.25;;;;;;;12.10;100.00;99685.16;5007966;28;20042;-56
2022/06/06 03:24:01;;;;;;;6.97;5.53;;;;;;;12.25;100.00;99666.28;5014204;28;20038;-57
2022/06/06 03:27:18;;;;;;;7.78;5.85;;;;;;;12.23;100.00;99657.59;5010513;28;20056;-57
2022/06/06 03:30:26;;;;;;;7.53;5.78;;;;;;;12.32;100.00;99666.94;5010747;28;20045;-56
2022/06/06 03:33:22;;;;;;;6.07;4.97;;;;;;;12.49;100.00;99675.06;5013080;28;20065;-57
2022/06/06 03:36:25;;;;;;;5.93;5.28;;;;;;;12.61;100.00;99673.78;5014551;28;20042;-57
2022/06/06 03:39:35;;;;;;;10.77;5.72;;;;;;;12.73;100.00;99673.31;5013421;28;20053;-57
2022/06/06 03:42:39;;;;;;;9.13;7.22;;;;;;;12.67;100.00;99668.28;5015102;28;20060;-57
2022/06/06 03:45:23;;;;;;;8.70;6.90;;;;;;;12.81;100.00;99662.56;5012188;28;20049;-56
2022/06/06 03:48:33;;;;;;;7.82;6.25;;;;;;;12.93;100.00;99669.97;5014397;28;20050;-56
2022/06/06 03:51:36;;;;;;;7.85;6.38;;;;;;;13.06;100.00;99662.50;5012114;28;20582;-57
2022/06/06 03:54:29;;;;;;;9.98;6.35;;;;;;;13.17;100.00;99670.84;5012419;28;20061;-55
2022/06/06 03:57:18;;;;;;;6.97;6.28;;;;;;;13.49;100.00;99668.78;5009032;28;20042;-57
2022/06/06 04:00:14;;;;;;;11.43;6.25;;;;;;;13.42;100.00;99644.50;5011869;28;20046;-56
2022/06/06 04:03:03;;;;;;;8.48;6.93;;;;;;;13.65;100.00;99655.84;5015906;28;20049;-57
2022/06/06 04:05:48;;;;;;;10.00;6.95;;;;;;;13.60;100.00;99650.78;5010541;28;20050;-56
2022/06/06 04:08:32;;;;;;;10.70;6.93;;;;;;;13.76;100.00;99651.03;5008251;28;20054;-56
2022/06/06 04:11:22;;;;;;;10.55;7.20;;;;;;;13.70;100.00;99643.38;5008769;28;21172;-56
2022/06/06 04:14:40;;;;;;;8.90;7.45;;;;;;;13.80;100.00;99636.81;5008486;28;20050;-56
2022/06/06 04:17:31;;;;;;;8.95;7.20;;;;;;;13.88;100.00;99641.78;5006473;28;20054;-56
2022/06/06 04:20:24;;;;;;;9.45;7.55;;;;;;;14.26;100.00;99648.91;5009526;28;20045;-57
2022/06/06 04:23:27;;;;;;;8.50;7.40;;;;;;;14.22;100.00;99642.06;5005487;28;20046;-58
2022/06/06 04:26:25;;;;;;;7.82;7.13;;;;;;;14.25;100.00;99647.22;5004966;28;20332;-57
2022/06/06 04:29:16;;;;;;;8.45;6.97;;;;;;;14.34;100.00;99640.69;5006883;28;20484;-56
2022/06/06 04:32:39;;;;;;;11.07;7.55;;;;;;;14.34;100.00;99632.81;5005809;28;20133;-56
2022/06/06 04:35:47;;;;;;;8.85;7.93;;;;;;;14.20;100.00;99630.75;5002264;28;20385;-57
2022/06/06 04:39:00;;;;;;;9.75;7.82;;;;;;;14.21;100.00;99628.97;5010238;28;20038;-56
2022/06/06 04:41:54;;;;;;;8.27;7.47;;;;;;;14.15;100.00;99632.72;5006986;28;20053;-55
2022/06/06 04:44:50;;;;;;;8.15;7.35;;;;;;;14.20;100.00;99629.88;5006792;28;20049;-56
2022/06/06 04:47:40;;;;;;;11.73;8.15;;;;;;;14.19;100.00;99630.81;5007132;28;20042;-55
2022/06/06 04:50:25;;;;;;;10.70;8.70;;;;;;;14.57;100.00;99626.56;5006476;28;20053;-55
2022/06/06 04:53:16;;;;;;;8.20;7.15;;;;;;;14.85;100.00;99635.84;5005528;28;20052;-56
2022/06/06 04:56:01;;;;;;;8.80;7.90;;;;;;;15.83;100.00;99628.63;5005545;28;20042;-56
2022/06/06 04:58:49;;;;;;;8.23;6.53;;;;;;;16.52;100.00;99633.03;5006183;28;21846;-56
2022/06/06 05:01:34;;;;;;;9.68;8.18;;;;;;;16.72;100.00;99639.91;5007834;28;20053;-56
2022/06/06 05:04:18;;;;;;;8.10;7.15;;;;;;;16.80;100.00;99632.44;5006021;28;20046;-57
2022/06/06 05:07:17;;;;;;;8.77;7.68;;;;;;;17.56;100.00;99635.34;5013947;28;20048;-57
2022/06/06 05:10:41;;;;;;;8.40;7.25;;;;;;;17.84;100.00;99628.47;5015533;28;20885;-58
2022/06/06 05:13:50;;;;;;;7.55;6.70;;;;;;;18.44;100.00;99620.50;5013774;28;20438;-58
2022/06/06 05:16:39;;;;;;;9.55;8.55;;;;;;;18.61;100.00;99624.78;5015893;28;20492;-58
2022/06/06 05:19:24;;;;;;;10.07;8.05;;;;;;;18.88;100.00;99617.84;4990896;28;20034;-58
2022/06/06 05:22:49;;;;;;;11.27;8.32;;;;;;;18.96;100.00;99614.69;5011511;28;20523;-58
2022/06/06 05:25:55;;;;;;;10.40;8.30;;;;;;;19.13;100.00;99610.97;5010985;28;20602;-58
2022/06/06 05:28:55;;;;;;;8.30;7.45;;;;;;;19.60;98.52;99617.69;5011317;28;20076;-58
2022/06/06 05:31:44;;;;;;;6.70;5.88;;;;;;;19.91;99.93;99611.22;5008732;28;20045;-58
2022/06/06 05:34:44;;;;;;;9.43;7.05;;;;;;;20.20;91.43;99622.56;5008035;28;20054;-58
2022/06/06 05:37:40;;;;;;;8.02;6.28;;;;;;;20.21;89.91;99620.75;5008356;28;20066;-59
2022/06/06 05:40:34;;;;;;;6.72;5.80;;;;;;;20.28;91.80;99619.38;5006798;28;20041;-59
2022/06/06 05:43:40;;;;;;;6.18;5.57;;;;;;;20.80;86.51;99625.59;5009859;28;20042;-59
2022/06/06 05:46:49;;;;;;;11.77;7.55;;;;;;;21.11;83.56;99622.44;5009331;28;20057;-60
2022/06/06 05:50:11;;;;;;;8.18;5.72;;;;;;;21.42;82.67;99623.78;5007836;28;20046;-59
2022/06/06 05:53:07;;;;;;;7.38;5.72;;;;;;;21.57;81.00;99620.97;5009572;28;20115;-59
2022/06/06 05:56:10;;;;;;;10.85;7.15;;;;;;;20.91;82.58;99621.22;5008906;28;20043;-59
2022/06/06 05:59:05;;;;;;;9.85;6.07;;;;;;;21.61;82.50;99620.63;5008483;28;20061;-60
2022/06/06 06:01:56;;;;;;;8.35;5.45;;;;;;;21.19;85.68;99630.75;5010349;28;20077;-60
2022/06/06 06:05:14;;;;;;;5.45;4.95;;;;;;;21.64;80.94;99622.22;5009084;28;20065;-60
2022/06/06 06:08:08;;;;;;;5.97;5.35;;;;;;;21.56;80.63;99620.13;5009101;28;20057;-60
2022/06/06 06:11:07;;;;;;;6.32;5.47;;;;;;;22.09;80.89;99627.75;5008749;28;20609;-60
2022/06/06 06:14:13;;;;;;;5.53;5.03;;;;;;;21.44;85.99;99629.00;5009046;28;20045;-60
2022/06/06 06:17:00;;;;;;;6.10;5.18;;;;;;;21.96;81.27;99633.13;5022757;28;20038;-60
2022/06/06 06:19:50;;;;;;;4.93;4.53;;;;;;;22.66;78.32;99626.09;5008913;28;20369;-60
2022/06/06 06:22:40;;;;;;;7.53;4.85;;;;;;;22.99;78.24;99625.28;5007339;28;20042;-61
2022/06/06 06:25:26;;;;;;;7.45;5.22;;;;;;;22.91;78.21;99619.66;5011786;28;20075;-60
2022/06/06 06:28:12;;;;;;;8.93;5.18;;;;;;;22.68;79.56;99630.31;5009634;28;20045;-60
2022/06/06 06:31:19;;;;;;;5.95;4.82;;;;;;;22.33;80.02;99627.75;5009251;28;20049;-60
2022/06/06 06:34:13;;;;;;;4.95;4.38;;;;;;;22.87;81.99;99613.72;4998399;28;20049;-60
2022/06/06 06:37:14;;;;;;;8.75;5.10;;;;;;;23.48;76.99;99619.50;5007134;28;20103;-60
2022/06/06 06:40:32;;;;;;;5.35;4.15;;;;;;;23.86;72.73;99617.38;5003487;28;20060;-60
2022/06/06 06:43:39;;;;;;;5.05;4.30;;;;;;;24.01;73.97;99619.59;5003161;28;20790;-60
2022/06/06 06:46:33;;;;;;;7.90;5.05;;;;;;;24.19;72.44;99614.53;5002872;28;20046;-60
2022/06/06 06:49:36;;;;;;;6.07;4.95;;;;;;;24.37;74.07;99616.59;5005814;28;20038;-60
2022/06/06 06:52:40;;;;;;;6.18;4.60;;;;;;;24.23;76.97;99618.63;5005578;28;20053;-60
2022/06/06 06:55:55;;;;;;;4.15;3.72;;;;;;;24.91;70.65;99619.03;5006442;28;20137;-60
2022/06/06 06:58:39;;;;;;;4.85;4.30;;;;;;;25.01;72.86;99620.91;5009137;28;20069;-60
2022/06/06 07:01:36;;;;;;;5.13;4.10;;;;;;;24.79;70.91;99616.59;5010468;28;20053;-60
2022/06/06 07:08:32;;;;;;;5.32;4.20;;;;;;;25.67;70.04;99607.00;5009889;28;20122;-60
2022/06/06 07:11:38;;;;;;;4.82;3.80;;;;;;;25.24;69.31;99619.75;5011192;28;20046;-60
2022/06/06 07:14:28;;;;;;;4.25;3.85;;;;;;;25.49;73.26;99623.78;5010567;28;20046;-60
2022/06/06 07:17:14;;;;;;;4.63;3.83;;;;;;;25.40;70.79;99611.19;5011752;28;20042;-60
2022/06/06 07:20:04;;;;;;;4.35;3.42;;;;;;;26.34;69.12;99609.69;5009776;28;20404;-60
2022/06/06 07:22:59;;;;;;;3.92;3.30;;;;;;;25.88;70.75;99611.28;5008494;28;20050;-60
2022/06/06 07:25:46;;;;;;;4.05;3.40;;;;;;;25.93;68.97;99610.00;5008627;28;20081;-60
2022/06/06 07:28:30;;;;;;;4.10;3.70;;;;;;;25.97;68.46;99614.97;5012122;28;20046;-61
2022/06/06 07:31:24;;;;;;;7.28;3.47;;;;;;;26.60;65.64;99613.63;5015550;28;20065;-61
2022/06/06 07:34:32;;;;;;;6.07;3.20;;;;;;;26.06;67.15;99608.75;5016003;28;20129;-60
2022/06/06 07:37:29;;;;;;;3.67;3.15;;;;;;;27.09;64.54;99616.97;5014852;28;20077;-61
2022/06/06 07:40:37;;;;;;;4.85;2.90;;;;;;;26.89;66.84;99624.25;5013192;28;20412;-61
2022/06/06 07:43:44;;;;;;;3.38;3.08;;;;;;;27.38;65.40;99617.69;5009177;28;20038;-61
2022/06/06 07:46:47;;;;;;;4.22;3.28;;;;;;;27.20;66.11;99619.47;5009285;28;20050;-61
2022/06/06 07:49:51;;;;;;;3.15;2.85;;;;;;;27.92;63.83;99617.78;5004911;28;20436;-62
2022/06/06 07:52:48;;;;;;;3.40;3.00;;;;;;;27.06;64.28;99611.88;5009308;28;20057;-62
2022/06/06 07:56:28;;;;;;;3.25;2.95;;;;;;;26.76;62.54;99600.41;5007895;28;20038;-63
2022/06/06 07:59:34;;;;;;;4.00;2.28;;;;;;;27.10;61.76;99599.84;4946166;28;20054;-62
2022/06/06 08:02:37;;;;;;;3.35;2.67;;;;;;;27.50;60.40;99597.66;5016247;28;20056;-62
2022/06/06 08:05:43;;;;;;;2.97;2.67;;;;;;;27.64;60.56;99598.13;5014104;28;20069;-61
2022/06/06 08:08:30;;;;;;;3.38;2.85;;;;;;;28.45;62.06;99597.19;5009794;28;20057;-63
2022/06/06 08:11:34;;;;;;;2.70;2.50;;;;;;;27.94;62.38;99596.91;5009255;28;20052;-61
2022/06/06 08:14:40;;;;;;;2.70;2.25;;;;;;;28.98;59.27;99605.03;5010196;28;20127;-62
2022/06/06 08:17:31;;;;;;;4.72;3.00;;;;;;;28.38;61.73;99600.47;5009371;28;20053;-62
2022/06/06 08:20:36;;;;;;;2.78;2.58;;;;;;;29.56;58.60;99606.94;5009934;28;20133;-63
2022/06/06 08:23:22;;;;;;;2.85;2.45;;;;;;;29.09;57.37;99617.44;5011020;28;20131;-62
2022/06/06 08:26:08;;;;;;;3.83;2.25;;;;;;;28.25;59.39;99605.41;5009162;28;20683;-62
2022/06/06 08:28:53;;;;;;;4.72;2.78;;;;;;;27.55;62.55;99618.69;5007331;28;20188;-62
2022/06/06 08:31:37;;;;;;;4.65;3.13;;;;;;;28.38;61.44;99610.41;5007783;28;20058;-63
2022/06/06 08:34:21;;;;;;;6.28;2.80;;;;;;;28.49;60.74;99607.47;5015397;28;20077;-62
2022/06/06 08:37:21;;;;;;;3.20;2.58;;;;;;;28.19;64.80;99612.28;5012093;28;20053;-63
2022/06/06 08:40:33;;;;;;;2.63;2.42;;;;;;;27.42;64.95;99616.38;5011243;28;20065;-62
2022/06/06 08:43:36;;;;;;;6.05;2.70;;;;;;;26.22;68.05;99609.97;5012559;28;20040;-63
2022/06/06 08:46:52;;;;;;;3.63;2.70;;;;;;;26.20;67.89;99606.63;5012702;28;20395;-61
2022/06/06 08:53:26;;;;;;;2.90;2.30;;;;;;;25.77;71.47;99610.53;5008951;28;20083;-62
2022/06/06 08:56:44;;;;;;;3.00;2.70;;;;;;;26.10;70.73;99614.66;5002974;28;20137;-61
2022/06/06 08:59:50;;;;;;;5.32;3.15;;;;;;;26.37;70.13;99613.91;4989403;28;20060;-61
2022/06/06 09:02:54;;;;;;;3.75;2.90;;;;;;;26.15;69.38;99608.88;5008931;28;20073;-61
2022/06/06 09:06:06;;;;;;;3.22;2.92;;;;;;;26.15;70.63;99612.38;5006845;28;20057;-61
2022/06/06 09:09:04;;;;;;;4.28;3.60;;;;;;;26.66;69.00;99610.34;5007562;28;20041;-61
2022/06/06 09:11:48;;;;;;;4.00;2.58;;;;;;;26.79;66.66;99606.34;5006498;28;20100;-61
2022/06/06 09:14:51;;;;;;;3.88;3.00;;;;;;;26.68;69.29;99595.78;5007009;28;20388;-61
2022/06/06 09:17:42;;;;;;;4.28;3.03;;;;;;;26.86;68.36;99608.44;5006791;28;20050;-60
2022/06/06 09:20:55;;;;;;;4.10;2.55;;;;;;;27.34;68.81;99607.41;5010268;28;20214;-60
2022/06/06 09:24:12;;;;;;;2.88;2.63;;;;;;;26.97;67.44;99595.66;5007698;28;20054;-61
2022/06/06 09:27:21;;;;;;;4.32;3.25;;;;;;;27.14;65.54;99602.13;5009316;28;20105;-60
2022/06/06 09:30:19;;;;;;;4.15;2.67;;;;;;;26.91;68.23;99612.38;5010443;28;20041;-60
2022/06/06 09:33:22;;;;;;;4.25;3.00;;;;;;;26.38;68.30;99615.59;5007472;28;20041;-61
2022/06/06 09:36:23;;;;;;;5.07;2.55;;;;;;;26.77;72.70;99613.69;5009668;28;20076;-60
2022/06/06 09:39:16;;;;;;;3.28;2.95;;;;;;;26.71;71.90;99614.28;5009591;28;20052;-60
2022/06/06 09:42:06;;;;;;;3.92;3.10;;;;;;;27.02;66.31;99604.13;5008701;28;20054;-61
2022/06/06 09:44:57;;;;;;;7.05;3.63;;;;;;;26.67;68.58;99612.03;5008773;28;20076;-60
2022/06/06 09:48:14;;;;;;;4.32;3.60;;;;;;;27.06;65.79;99611.88;5005292;28;20574;-60
2022/06/06 09:51:19;;;;;;;5.57;3.58;;;;;;;27.66;63.69;99610.44;5010032;28;20045;-60
2022/06/06 10:01:48;;;;;;;3.40;2.70;;;;;;;27.50;66.26;99604.88;5006944;28;20069;-61
2022/06/06 10:04:59;;;;;;;4.50;2.92;;;;;;;27.77;67.44;99601.31;5007561;28;20085;-61
2022/06/06 10:08:05;;;;;;;5.85;3.45;;;;;;;26.82;68.46;99612.44;5010017;28;20038;-61
2022/06/06 10:11:27;;;;;;;3.60;2.95;;;;;;;28.32;64.04;99611.03;5006385;28;20077;-61
2022/06/06 10:14:48;;;;;;;4.93;2.50;;;;;;;27.83;65.06;99613.31;5009309;28;20123;-61
2022/06/06 10:17:47;;;;;;;3.80;3.25;;;;;;;27.03;65.78;99615.72;5007419;28;20655;-62
2022/06/06 10:20:42;;;;;;;3.55;2.60;;;;;;;26.85;68.27;99607.59;5009995;28;20053;-61
2022/06/06 10:24:00;;;;;;;2.70;2.50;;;;;;;26.91;70.77;99611.50;5017213;28;20054;-61
2022/06/06 10:27:02;;;;;;;2.80;2.58;;;;;;;25.79;69.90;99613.94;5012291;28;20368;-60
2022/06/06 10:30:11;;;;;;;4.05;2.35;;;;;;;26.21;69.85;99611.81;5016678;28;20061;-60
2022/06/06 10:33:05;;;;;;;3.80;2.72;;;;;;;26.90;68.50;99613.34;5014932;28;20064;-60
2022/06/06 10:36:08;;;;;;;2.50;2.03;;;;;;;26.46;67.10;99606.84;5012817;28;20050;-61
2022/06/06 10:39:16;;;;;;;2.80;2.30;;;;;;;25.88;69.40;99615.81;5016975;28;20053;-60
2022/06/06 10:42:28;;;;;;;3.47;2.55;;;;;;;26.02;68.05;99611.84;5017566;28;20042;-60
2022/06/06 10:45:32;;;;;;;2.88;2.65;;;;;;;26.43;67.66;99607.97;5010349;28;20050;-61
2022/06/06 10:48:25;;;;;;;3.30;2.55;;;;;;;26.64;69.79;99605.13;5009826;28;20065;-60
2022/06/06 10:51:37;;;;;;;3.65;2.90;;;;;;;26.11;70.06;99606.47;5014658;28;20053;-60
2022/06/06 10:54:36;;;;;;;2.22;2.03;;;;;;;26.18;68.74;99595.16;5012769;28;20420;-60
2022/06/06 10:57:52;;;;;;;2.72;2.40;;;;;;;26.67;68.75;99595.94;5010080;28;20038;-60
2022/06/06 11:00:48;;;;;;;2.47;2.28;;;;;;;26.52;68.28;99599.09;5014099;28;20488;-60
2022/06/06 11:04:05;;;;;;;3.85;2.50;;;;;;;26.42;68.10;99600.06;5014270;28;20050;-60
2022/06/06 11:07:35;;;;;;;1.95;1.83;;;;;;;26.27;69.09;99588.94;5011906;28;20045;-59
2022/06/06 11:10:38;;;;;;;5.90;3.92;;;;;;;25.32;74.19;99609.22;5013836;28;20056;-60
2022/06/06 11:13:31;;;;;;;4.60;3.60;;;;;;;25.34;74.47;99606.38;5010797;28;20042;-60
2022/06/06 11:17:00;;;;;;;5.22;4.68;;;;;;;24.92;77.10;99617.22;5010521;28;20042;-60
2022/06/06 11:20:03;;;;;;;4.80;4.10;;;;;;;25.62;77.45;99610.94;5003065;28;20145;-60
2022/06/06 11:23:21;;;;;;;9.73;4.93;;;;;;;25.74;74.76;99606.31;5008479;28;20053;-60
2022/06/06 11:26:26;;;;;;;5.82;4.38;;;;;;;25.75;76.84;99623.25;5009734;28;20048;-60
2022/06/06 11:29:38;;;;;;;6.32;5.32;;;;;;;25.44;78.00;99627.84;5010357;28;20381;-60
2022/06/06 11:32:50;;;;;;;4.25;3.85;;;;;;;26.61;71.05;99618.81;5007559;28;20054;-59
2022/06/06 11:35:43;;;;;;;5.20;3.75;;;;;;;27.39;66.27;99613.97;4991714;28;20054;-60
2022/06/06 11:38:55;;;;;;;4.32;3.08;;;;;;;27.78;69.06;99605.69;5009872;28;20128;-60
2022/06/06 11:41:49;;;;;;;3.33;2.58;;;;;;;26.91;68.10;99617.75;5008956;28;20053;-60
2022/06/06 11:44:58;;;;;;;3.05;2.80;;;;;;;26.50;71.23;99619.00;5008224;28;20045;-60
2022/06/06 11:47:59;;;;;;;3.30;3.00;;;;;;;26.31;73.10;99612.66;5008422;28;20057;-60
2022/06/06 11:51:18;;;;;;;4.20;3.80;;;;;;;25.86;75.42;99615.09;5012320;28;20109;-59
2022/06/06 11:54:15;;;;;;;2.97;2.78;;;;;;;26.34;72.06;99608.84;4993186;28;20489;-58
2022/06/06 11:57:21;;;;;;;5.22;3.33;;;;;;;25.21;75.97;99622.69;5010036;28;20123;-59
2022/06/06 12:00:14;;;;;;;3.40;3.10;;;;;;;25.50;77.00;99619.25;5002854;28;20058;-59
2022/06/06 12:03:36;;;;;;;3.30;2.90;;;;;;;25.65;75.43;99613.34;5006566;28;20050;-59
2022/06/06 12:06:48;;;;;;;4.35;3.17;;;;;;;25.41;77.23;99621.78;5011602;28;20112;-59
2022/06/06 12:09:51;;;;;;;4.57;3.50;;;;;;;25.49;75.14;99626.44;5010021;28;20046;-59
2022/06/06 12:13:02;;;;;;;4.88;2.80;;;;;;;25.46;76.28;99624.03;5010197;28;20452;-59
2022/06/06 12:15:49;;;;;;;3.22;2.92;;;;;;;24.66;77.19;99627.50;5006722;28;20405;-58
2022/06/06 12:19:08;;;;;;;4.00;2.60;;;;;;;25.32;75.91;99622.59;5011621;28;20448;-58
2022/06/06 12:22:05;;;;;;;2.95;2.67;;;;;;;25.39;80.42;99628.28;5014488;28;20038;-58
2022/06/06 12:25:26;;;;;;;3.72;3.25;;;;;;;25.44;76.61;99625.16;5010971;28;20053;-58
2022/06/06 12:28:55;;;;;;;4.00;3.45;;;;;;;25.37;78.77;99622.19;5004482;28;20054;-58
2022/06/06 12:31:42;;;;;;;3.35;2.83;;;;;;;24.48;82.36;99633.47;4991942;28;20131;-58
2022/06/06 12:34:38;;;;;;;3.67;2.53;;;;;;;24.61;81.01;99635.09;5006526;28;20072;-58
2022/06/06 12:37:32;;;;;;;3.60;3.05;;;;;;;24.45;82.77;99630.22;5003419;28;20064;-58
2022/06/06 12:40:58;;;;;;;3.78;3.47;;;;;;;24.78;81.73;99629.13;5004061;28;20617;-58
2022/06/06 12:43:51;;;;;;;3.17;2.88;;;;;;;24.56;84.85;99629.28;4936496;29;20054;-58
2022/06/06 12:46:52;;;;;;;3.00;2.70;;;;;;;24.86;83.66;99623.09;5009657;28;20083;-58
2022/06/06 12:49:52;;;;;;;2.92;2.72;;;;;;;25.10;80.97;99628.16;5007242;28;20061;-58
2022/06/06 12:53:10;;;;;;;6.22;3.58;;;;;;;24.44;86.96;99629.38;5010507;28;20111;-58
2022/06/06 12:56:36;;;;;;;5.57;3.88;;;;;;;24.30;85.81;99624.31;5008009;28;20042;-58
2022/06/06 12:59:46;;;;;;;6.07;3.13;;;;;;;24.12;87.51;99636.59;5006715;28;20428;-58
2022/06/06 13:02:34;;;;;;;3.47;3.17;;;;;;;24.00;89.61;99636.63;5005660;28;20065;-58
2022/06/06 13:05:22;;;;;;;2.60;2.40;;;;;;;24.15;88.10;99647.03;5006217;28;20119;-58
2022/06/06 13:08:19;;;;;;;4.50;4.10;;;;;;;23.72;91.26;99639.88;5009019;28;20042;-58
2022/06/06 13:11:26;;;;;;;5.28;4.88;;;;;;;23.55;93.45;99634.06;5005588;28;20156;-58
2022/06/06 13:14:16;;;;;;;6.22;3.80;;;;;;;23.39;92.58;99641.63;5006184;28;20042;-59
2022/06/06 13:17:19;;;;;;;4.28;3.30;;;;;;;23.23;94.41;99639.34;5010156;28;20078;-57
2022/06/06 13:20:29;;;;;;;3.45;3.20;;;;;;;23.49;93.76;99639.91;5006832;28;20042;-58
2022/06/06 13:23:16;;;;;;;3.65;3.10;;;;;;;23.54;89.99;99643.06;5006824;28;20065;-58
2022/06/06 13:26:00;;;;;;;6.15;5.55;;;;;;;23.39;90.77;99640.78;5006179;28;20112;-57
2022/06/06 13:28:55;;;;;;;6.57;5.57;;;;;;;23.55;91.77;99635.88;5007528;28;20582;-57
2022/06/06 13:32:01;;;;;;;3.65;3.30;;;;;;;23.97;89.02;99634.19;5006919;28;20053;-57
2022/06/06 13:35:24;;;;;;;8.07;6.20;;;;;;;23.89;88.96;99630.47;5005730;28;20044;-58
2022/06/06 13:38:25;;;;;;;4.80;4.35;;;;;;;23.87;88.16;99629.75;5003006;28;20054;-57
2022/06/06 13:41:41;;;;;;;7.27;3.40;;;;;;;23.76;89.44;99627.97;5005805;28;20038;-58
2022/06/06 13:44:41;;;;;;;4.13;3.53;;;;;;;23.73;89.60;99623.72;5006599;28;20050;-58
2022/06/06 13:47:46;;;;;;;4.88;3.33;;;;;;;23.58;92.02;99635.63;5004623;28;20400;-59
2022/06/06 13:50:48;;;;;;;4.50;3.60;;;;;;;23.70;93.07;99640.00;5007521;28;20041;-58
2022/06/06 13:53:51;;;;;;;4.43;3.95;;;;;;;23.36;93.25;99643.69;5007308;28;20056;-57
2022/06/06 13:56:41;;;;;;;4.70;3.15;;;;;;;23.56;94.84;99642.91;5004251;28;20050;-57
2022/06/06 13:59:25;;;;;;;3.50;3.15;;;;;;;23.76;97.08;99638.66;5006368;28;20049;-58
2022/06/06 14:02:20;;;;;;;4.30;3.90;;;;;;;23.61;97.88;99631.88;5003417;28;20045;-57
2022/06/06 14:05:23;;;;;;;4.65;3.42;;;;;;;23.59;94.70;99644.50;5008755;28;20065;-57
2022/06/06 14:08:09;;;;;;;3.38;3.17;;;;;;;23.10;100.00;99643.97;5003248;28;20046;-57
2022/06/06 14:10:54;;;;;;;3.35;3.05;;;;;;;23.17;100.00;99639.84;5004191;28;20042;-57
2022/06/06 14:13:53;;;;;;;3.72;3.28;;;;;;;23.25;100.00;99636.56;5004480;28;20045;-57
2022/06/06 14:16:41;;;;;;;6.82;3.70;;;;;;;23.08;99.70;99638.75;5003977;28;20104;-58
2022/06/06 14:19:48;;;;;;;5.28;4.78;;;;;;;23.00;100.00;99633.16;5005321;28;20058;-56